sensor_id;sensor_type;location;lat;lon;timestamp;P1;durP1;ratioP1;P2;durP2;ratioP2
67378;SDS011;54262;44.642;-0.974;2023-10-19T00:00:32;0.70;;;0.60;;
67378;SDS011;54262;44.642;-0.974;2023-10-19T00:02:59;1.42;;;1.15;;
67378;SDS011;54262;44.642;-0.974;2023-10-19T00:05:28;1.35;;;1.13;;
67378;SDS011;54262;44.642;-0.974;2023-10-19T00:07:56;1.30;;;0.75;;
67378;SDS011;54262;44.642;-0.974;2023-10-19T00:10:26;1.40;;;1.05;;
67378;SDS011;54262;44.642;-0.974;2023-10-19T00:12:59;1.98;;;1.35;;
67378;SDS011;54262;44.642;-0.974;2023-10-19T00:15:36;1.63;;;1.27;;
67378;SDS011;54262;44.642;-0.974;2023-10-19T00:18:15;1.00;;;0.88;;
67378;SDS011;54262;44.642;-0.974;2023-10-19T00:20:41;3.45;;;1.30;;
67378;SDS011;54262;44.642;-0.974;2023-10-19T00:23:13;1.42;;;1.05;;
67378;SDS011;54262;44.642;-0.974;2023-10-19T00:25:40;0.98;;;0.82;;
67378;SDS011;54262;44.642;-0.974;2023-10-19T00:28:06;1.33;;;1.00;;
67378;SDS011;54262;44.642;-0.974;2023-10-19T00:30:33;1.00;;;0.80;;
67378;SDS011;54262;44.642;-0.974;2023-10-19T00:33:03;1.13;;;0.98;;
67378;SDS011;54262;44.642;-0.974;2023-10-19T00:35:30;1.63;;;1.35;;
67378;SDS011;54262;44.642;-0.974;2023-10-19T00:38:07;1.00;;;0.90;;
67378;SDS011;54262;44.642;-0.974;2023-10-19T00:40:51;2.47;;;1.23;;
67378;SDS011;54262;44.642;-0.974;2023-10-19T00:43:31;1.50;;;0.68;;
67378;SDS011;54262;44.642;-0.974;2023-10-19T00:46:02;1.75;;;0.93;;
67378;SDS011;54262;44.642;-0.974;2023-10-19T00:48:59;1.02;;;0.88;;
67378;SDS011;54262;44.642;-0.974;2023-10-19T00:51:27;1.10;;;0.90;;
67378;SDS011;54262;44.642;-0.974;2023-10-19T00:54:02;1.17;;;0.63;;
67378;SDS011;54262;44.642;-0.974;2023-10-19T00:56:35;1.70;;;1.02;;
67378;SDS011;54262;44.642;-0.974;2023-10-19T00:59:02;0.60;;;0.57;;
67378;SDS011;54262;44.642;-0.974;2023-10-19T01:01:47;0.90;;;0.50;;
67378;SDS011;54262;44.642;-0.974;2023-10-19T01:04:18;1.00;;;0.90;;
67378;SDS011;54262;44.642;-0.974;2023-10-19T01:06:56;1.75;;;0.80;;
67378;SDS011;54262;44.642;-0.974;2023-10-19T01:09:28;5.18;;;1.50;;
67378;SDS011;54262;44.642;-0.974;2023-10-19T01:11:59;3.22;;;1.10;;
67378;SDS011;54262;44.642;-0.974;2023-10-19T01:17:31;0.82;;;0.80;;
67378;SDS011;54262;44.642;-0.974;2023-10-19T01:20:03;1.75;;;1.00;;
67378;SDS011;54262;44.642;-0.974;2023-10-19T01:25:44;1.80;;;0.90;;
67378;SDS011;54262;44.642;-0.974;2023-10-19T01:28:20;3.10;;;1.00;;
67378;SDS011;54262;44.642;-0.974;2023-10-19T01:30:50;1.25;;;1.00;;
67378;SDS011;54262;44.642;-0.974;2023-10-19T01:33:19;0.77;;;0.77;;
67378;SDS011;54262;44.642;-0.974;2023-10-19T01:35:46;1.67;;;1.58;;
67378;SDS011;54262;44.642;-0.974;2023-10-19T01:38:31;1.38;;;1.20;;
67378;SDS011;54262;44.642;-0.974;2023-10-19T01:40:57;1.83;;;1.48;;
67378;SDS011;54262;44.642;-0.974;2023-10-19T01:43:31;1.52;;;1.02;;
67378;SDS011;54262;44.642;-0.974;2023-10-19T01:45:57;1.40;;;1.23;;
67378;SDS011;54262;44.642;-0.974;2023-10-19T01:48:29;3.20;;;1.17;;
67378;SDS011;54262;44.642;-0.974;2023-10-19T01:51:03;2.08;;;1.30;;
67378;SDS011;54262;44.642;-0.974;2023-10-19T01:53:30;1.23;;;1.05;;
67378;SDS011;54262;44.642;-0.974;2023-10-19T01:56:04;1.40;;;1.00;;
67378;SDS011;54262;44.642;-0.974;2023-10-19T01:58:42;0.88;;;0.82;;
67378;SDS011;54262;44.642;-0.974;2023-10-19T02:01:09;2.35;;;1.17;;
67378;SDS011;54262;44.642;-0.974;2023-10-19T02:03:37;1.33;;;1.23;;
67378;SDS011;54262;44.642;-0.974;2023-10-19T02:06:10;1.25;;;0.93;;
67378;SDS011;54262;44.642;-0.974;2023-10-19T02:09:03;3.00;;;1.10;;
67378;SDS011;54262;44.642;-0.974;2023-10-19T02:11:39;1.23;;;1.08;;
67378;SDS011;54262;44.642;-0.974;2023-10-19T02:14:08;1.33;;;1.23;;
67378;SDS011;54262;44.642;-0.974;2023-10-19T02:16:43;1.35;;;1.08;;
67378;SDS011;54262;44.642;-0.974;2023-10-19T02:19:11;1.23;;;1.05;;
67378;SDS011;54262;44.642;-0.974;2023-10-19T02:21:37;1.20;;;0.88;;
67378;SDS011;54262;44.642;-0.974;2023-10-19T02:24:07;1.13;;;1.02;;
67378;SDS011;54262;44.642;-0.974;2023-10-19T02:26:36;1.65;;;1.38;;
67378;SDS011;54262;44.642;-0.974;2023-10-19T02:29:03;1.00;;;0.90;;
67378;SDS011;54262;44.642;-0.974;2023-10-19T02:31:41;1.17;;;1.08;;
67378;SDS011;54262;44.642;-0.974;2023-10-19T02:34:09;0.77;;;0.77;;
67378;SDS011;54262;44.642;-0.974;2023-10-19T02:36:40;1.23;;;1.00;;
67378;SDS011;54262;44.642;-0.974;2023-10-19T02:39:08;3.42;;;1.23;;
67378;SDS011;54262;44.642;-0.974;2023-10-19T02:41:39;1.02;;;0.82;;
67378;SDS011;54262;44.642;-0.974;2023-10-19T02:44:11;1.35;;;1.25;;
67378;SDS011;54262;44.642;-0.974;2023-10-19T02:46:44;1.20;;;1.02;;
67378;SDS011;54262;44.642;-0.974;2023-10-19T02:49:11;1.15;;;1.02;;
67378;SDS011;54262;44.642;-0.974;2023-10-19T02:51:40;1.05;;;0.77;;
67378;SDS011;54262;44.642;-0.974;2023-10-19T02:54:10;2.25;;;1.20;;
67378;SDS011;54262;44.642;-0.974;2023-10-19T02:56:53;0.82;;;0.82;;
67378;SDS011;54262;44.642;-0.974;2023-10-19T02:59:22;1.33;;;0.90;;
67378;SDS011;54262;44.642;-0.974;2023-10-19T03:01:50;1.25;;;1.15;;
67378;SDS011;54262;44.642;-0.974;2023-10-19T03:04:17;0.80;;;0.80;;
67378;SDS011;54262;44.642;-0.974;2023-10-19T03:06:43;1.00;;;1.00;;
67378;SDS011;54262;44.642;-0.974;2023-10-19T03:09:09;0.95;;;0.85;;
67378;SDS011;54262;44.642;-0.974;2023-10-19T03:11:47;1.40;;;0.98;;
67378;SDS011;54262;44.642;-0.974;2023-10-19T03:14:18;1.20;;;0.90;;
67378;SDS011;54262;44.642;-0.974;2023-10-19T03:16:49;2.13;;;1.20;;
67378;SDS011;54262;44.642;-0.974;2023-10-19T03:19:15;1.02;;;1.02;;
67378;SDS011;54262;44.642;-0.974;2023-10-19T03:21:41;1.02;;;0.70;;
67378;SDS011;54262;44.642;-0.974;2023-10-19T03:24:14;1.00;;;0.90;;
67378;SDS011;54262;44.642;-0.974;2023-10-19T03:26:50;2.05;;;1.13;;
67378;SDS011;54262;44.642;-0.974;2023-10-19T03:29:16;1.23;;;1.13;;
67378;SDS011;54262;44.642;-0.974;2023-10-19T03:31:56;1.30;;;1.20;;
67378;SDS011;54262;44.642;-0.974;2023-10-19T03:34:22;1.13;;;1.00;;
67378;SDS011;54262;44.642;-0.974;2023-10-19T03:36:49;1.23;;;1.13;;
67378;SDS011;54262;44.642;-0.974;2023-10-19T03:39:15;1.25;;;1.23;;
67378;SDS011;54262;44.642;-0.974;2023-10-19T03:41:43;0.80;;;0.80;;
67378;SDS011;54262;44.642;-0.974;2023-10-19T03:44:13;1.50;;;1.40;;
67378;SDS011;54262;44.642;-0.974;2023-10-19T03:46:49;1.50;;;0.98;;
67378;SDS011;54262;44.642;-0.974;2023-10-19T03:49:21;1.70;;;1.20;;
67378;SDS011;54262;44.642;-0.974;2023-10-19T03:51:47;1.02;;;0.95;;
67378;SDS011;54262;44.642;-0.974;2023-10-19T03:54:26;1.15;;;1.05;;
67378;SDS011;54262;44.642;-0.974;2023-10-19T03:56:52;1.95;;;1.00;;
67378;SDS011;54262;44.642;-0.974;2023-10-19T03:59:19;1.40;;;0.90;;
67378;SDS011;54262;44.642;-0.974;2023-10-19T04:01:48;0.82;;;0.82;;
67378;SDS011;54262;44.642;-0.974;2023-10-19T04:04:14;1.08;;;0.98;;
67378;SDS011;54262;44.642;-0.974;2023-10-19T04:06:41;1.02;;;0.93;;
67378;SDS011;54262;44.642;-0.974;2023-10-19T04:09:12;0.98;;;0.95;;
67378;SDS011;54262;44.642;-0.974;2023-10-19T04:11:41;1.25;;;1.08;;
67378;SDS011;54262;44.642;-0.974;2023-10-19T04:14:17;1.02;;;1.02;;
67378;SDS011;54262;44.642;-0.974;2023-10-19T04:16:43;1.05;;;0.93;;
67378;SDS011;54262;44.642;-0.974;2023-10-19T04:19:13;1.30;;;1.20;;
67378;SDS011;54262;44.642;-0.974;2023-10-19T04:21:42;0.90;;;0.90;;
67378;SDS011;54262;44.642;-0.974;2023-10-19T04:24:15;2.70;;;1.13;;
67378;SDS011;54262;44.642;-0.974;2023-10-19T04:26:43;0.93;;;0.93;;
67378;SDS011;54262;44.642;-0.974;2023-10-19T04:29:12;1.00;;;1.00;;
67378;SDS011;54262;44.642;-0.974;2023-10-19T04:31:42;0.88;;;0.88;;
67378;SDS011;54262;44.642;-0.974;2023-10-19T04:34:20;1.55;;;1.40;;
67378;SDS011;54262;44.642;-0.974;2023-10-19T04:36:49;1.30;;;1.20;;
67378;SDS011;54262;44.642;-0.974;2023-10-19T04:39:15;1.10;;;1.00;;
67378;SDS011;54262;44.642;-0.974;2023-10-19T04:41:47;1.23;;;1.15;;
67378;SDS011;54262;44.642;-0.974;2023-10-19T04:44:14;2.17;;;0.90;;
67378;SDS011;54262;44.642;-0.974;2023-10-19T04:46:40;0.90;;;0.90;;
67378;SDS011;54262;44.642;-0.974;2023-10-19T04:49:06;1.23;;;1.13;;
67378;SDS011;54262;44.642;-0.974;2023-10-19T04:51:33;1.38;;;1.27;;
67378;SDS011;54262;44.642;-0.974;2023-10-19T04:54:03;1.10;;;1.00;;
67378;SDS011;54262;44.642;-0.974;2023-10-19T04:56:29;1.50;;;1.40;;
67378;SDS011;54262;44.642;-0.974;2023-10-19T04:58:56;4.00;;;1.02;;
67378;SDS011;54262;44.642;-0.974;2023-10-19T05:01:22;1.25;;;1.15;;
67378;SDS011;54262;44.642;-0.974;2023-10-19T05:03:47;0.85;;;0.85;;
67378;SDS011;54262;44.642;-0.974;2023-10-19T05:06:13;1.27;;;1.17;;
67378;SDS011;54262;44.642;-0.974;2023-10-19T05:08:39;0.98;;;0.98;;
67378;SDS011;54262;44.642;-0.974;2023-10-19T05:11:04;1.20;;;1.10;;
67378;SDS011;54262;44.642;-0.974;2023-10-19T05:13:30;1.63;;;1.52;;
67378;SDS011;54262;44.642;-0.974;2023-10-19T05:16:00;1.08;;;0.98;;
67378;SDS011;54262;44.642;-0.974;2023-10-19T05:18:27;1.67;;;1.48;;
67378;SDS011;54262;44.642;-0.974;2023-10-19T05:20:54;1.30;;;1.20;;
67378;SDS011;54262;44.642;-0.974;2023-10-19T05:23:21;1.77;;;1.67;;
67378;SDS011;54262;44.642;-0.974;2023-10-19T05:25:51;1.58;;;1.35;;
67378;SDS011;54262;44.642;-0.974;2023-10-19T05:28:25;1.50;;;1.40;;
67378;SDS011;54262;44.642;-0.974;2023-10-19T05:30:53;2.45;;;2.17;;
67378;SDS011;54262;44.642;-0.974;2023-10-19T05:33:19;1.70;;;1.60;;
67378;SDS011;54262;44.642;-0.974;2023-10-19T05:35:48;2.10;;;1.52;;
67378;SDS011;54262;44.642;-0.974;2023-10-19T05:38:16;4.15;;;2.13;;
67378;SDS011;54262;44.642;-0.974;2023-10-19T05:40:45;1.83;;;1.73;;
67378;SDS011;54262;44.642;-0.974;2023-10-19T05:43:12;2.10;;;1.88;;
67378;SDS011;54262;44.642;-0.974;2023-10-19T05:45:38;1.83;;;1.73;;
67378;SDS011;54262;44.642;-0.974;2023-10-19T05:48:04;2.17;;;2.00;;
67378;SDS011;54262;44.642;-0.974;2023-10-19T05:50:31;2.17;;;1.98;;
67378;SDS011;54262;44.642;-0.974;2023-10-19T05:52:58;2.33;;;2.10;;
67378;SDS011;54262;44.642;-0.974;2023-10-19T05:55:25;1.88;;;1.58;;
67378;SDS011;54262;44.642;-0.974;2023-10-19T05:57:51;2.53;;;1.90;;
67378;SDS011;54262;44.642;-0.974;2023-10-19T06:00:16;1.50;;;1.40;;
67378;SDS011;54262;44.642;-0.974;2023-10-19T06:02:45;1.80;;;1.70;;
67378;SDS011;54262;44.642;-0.974;2023-10-19T06:05:14;1.63;;;1.52;;
67378;SDS011;54262;44.642;-0.974;2023-10-19T06:07:44;2.25;;;2.05;;
67378;SDS011;54262;44.642;-0.974;2023-10-19T06:10:11;2.13;;;2.00;;
67378;SDS011;54262;44.642;-0.974;2023-10-19T06:12:55;2.95;;;2.25;;
67378;SDS011;54262;44.642;-0.974;2023-10-19T06:15:22;1.70;;;1.58;;
67378;SDS011;54262;44.642;-0.974;2023-10-19T06:17:51;1.75;;;1.65;;
67378;SDS011;54262;44.642;-0.974;2023-10-19T06:20:17;2.30;;;2.08;;
67378;SDS011;54262;44.642;-0.974;2023-10-19T06:22:53;2.88;;;1.75;;
67378;SDS011;54262;44.642;-0.974;2023-10-19T06:25:21;4.20;;;1.83;;
67378;SDS011;54262;44.642;-0.974;2023-10-19T06:27:50;2.00;;;1.90;;
67378;SDS011;54262;44.642;-0.974;2023-10-19T06:30:17;1.48;;;1.40;;
67378;SDS011;54262;44.642;-0.974;2023-10-19T06:32:50;5.63;;;2.40;;
67378;SDS011;54262;44.642;-0.974;2023-10-19T06:35:17;2.50;;;2.05;;
67378;SDS011;54262;44.642;-0.974;2023-10-19T06:37:43;2.80;;;2.45;;
67378;SDS011;54262;44.642;-0.974;2023-10-19T06:40:10;2.35;;;2.15;;
67378;SDS011;54262;44.642;-0.974;2023-10-19T06:42:45;1.70;;;1.60;;
67378;SDS011;54262;44.642;-0.974;2023-10-19T06:45:14;2.10;;;1.90;;
67378;SDS011;54262;44.642;-0.974;2023-10-19T06:47:45;1.90;;;1.80;;
67378;SDS011;54262;44.642;-0.974;2023-10-19T06:50:14;4.95;;;1.63;;
67378;SDS011;54262;44.642;-0.974;2023-10-19T06:52:42;2.53;;;2.33;;
67378;SDS011;54262;44.642;-0.974;2023-10-19T06:55:09;2.20;;;2.03;;
67378;SDS011;54262;44.642;-0.974;2023-10-19T06:57:42;3.08;;;1.90;;
67378;SDS011;54262;44.642;-0.974;2023-10-19T07:00:09;2.10;;;1.90;;
67378;SDS011;54262;44.642;-0.974;2023-10-19T07:02:44;3.75;;;1.88;;
67378;SDS011;54262;44.642;-0.974;2023-10-19T07:05:11;2.35;;;1.55;;
67378;SDS011;54262;44.642;-0.974;2023-10-19T07:07:42;1.58;;;1.48;;
67378;SDS011;54262;44.642;-0.974;2023-10-19T07:10:10;1.73;;;1.63;;
67378;SDS011;54262;44.642;-0.974;2023-10-19T07:12:40;1.65;;;1.55;;
67378;SDS011;54262;44.642;-0.974;2023-10-19T07:15:09;3.72;;;1.98;;
67378;SDS011;54262;44.642;-0.974;2023-10-19T07:17:44;5.90;;;1.90;;
67378;SDS011;54262;44.642;-0.974;2023-10-19T07:20:14;5.03;;;1.58;;
67378;SDS011;54262;44.642;-0.974;2023-10-19T07:23:02;2.10;;;1.90;;
67378;SDS011;54262;44.642;-0.974;2023-10-19T07:25:35;2.40;;;1.85;;
67378;SDS011;54262;44.642;-0.974;2023-10-19T07:28:11;9.18;;;1.80;;
67378;SDS011;54262;44.642;-0.974;2023-10-19T07:30:41;5.80;;;1.70;;
67378;SDS011;54262;44.642;-0.974;2023-10-19T07:33:09;2.03;;;1.75;;
67378;SDS011;54262;44.642;-0.974;2023-10-19T07:35:38;3.00;;;1.60;;
67378;SDS011;54262;44.642;-0.974;2023-10-19T07:38:04;1.83;;;1.52;;
67378;SDS011;54262;44.642;-0.974;2023-10-19T07:40:32;1.42;;;1.33;;
67378;SDS011;54262;44.642;-0.974;2023-10-19T07:42:58;7.00;;;1.55;;
67378;SDS011;54262;44.642;-0.974;2023-10-19T07:45:24;1.80;;;1.40;;
67378;SDS011;54262;44.642;-0.974;2023-10-19T07:47:50;1.40;;;1.20;;
67378;SDS011;54262;44.642;-0.974;2023-10-19T07:50:16;2.58;;;1.50;;
67378;SDS011;54262;44.642;-0.974;2023-10-19T07:52:45;6.20;;;1.30;;
67378;SDS011;54262;44.642;-0.974;2023-10-19T07:55:13;3.38;;;1.77;;
67378;SDS011;54262;44.642;-0.974;2023-10-19T07:57:40;2.22;;;1.23;;
67378;SDS011;54262;44.642;-0.974;2023-10-19T08:00:06;3.53;;;1.60;;
67378;SDS011;54262;44.642;-0.974;2023-10-19T08:02:33;4.63;;;1.58;;
67378;SDS011;54262;44.642;-0.974;2023-10-19T08:05:00;3.88;;;1.42;;
67378;SDS011;54262;44.642;-0.974;2023-10-19T08:07:27;1.23;;;1.20;;
67378;SDS011;54262;44.642;-0.974;2023-10-19T08:09:56;4.57;;;2.00;;
67378;SDS011;54262;44.642;-0.974;2023-10-19T08:12:24;8.70;;;1.65;;
67378;SDS011;54262;44.642;-0.974;2023-10-19T08:14:51;3.90;;;1.30;;
67378;SDS011;54262;44.642;-0.974;2023-10-19T08:17:18;6.30;;;1.50;;
67378;SDS011;54262;44.642;-0.974;2023-10-19T08:19:43;12.00;;;1.48;;
67378;SDS011;54262;44.642;-0.974;2023-10-19T08:22:09;3.70;;;2.38;;
67378;SDS011;54262;44.642;-0.974;2023-10-19T08:24:39;3.05;;;1.42;;
67378;SDS011;54262;44.642;-0.974;2023-10-19T08:27:08;3.40;;;1.48;;
67378;SDS011;54262;44.642;-0.974;2023-10-19T08:29:36;4.47;;;1.60;;
67378;SDS011;54262;44.642;-0.974;2023-10-19T08:32:02;3.58;;;1.50;;
67378;SDS011;54262;44.642;-0.974;2023-10-19T08:34:30;6.25;;;1.75;;
67378;SDS011;54262;44.642;-0.974;2023-10-19T08:37:01;3.60;;;1.60;;
67378;SDS011;54262;44.642;-0.974;2023-10-19T08:39:27;10.70;;;1.65;;
67378;SDS011;54262;44.642;-0.974;2023-10-19T08:41:59;5.10;;;1.40;;
67378;SDS011;54262;44.642;-0.974;2023-10-19T08:44:25;4.95;;;1.75;;
67378;SDS011;54262;44.642;-0.974;2023-10-19T08:46:52;3.90;;;1.40;;
67378;SDS011;54262;44.642;-0.974;2023-10-19T08:49:18;1.60;;;1.30;;
67378;SDS011;54262;44.642;-0.974;2023-10-19T08:51:45;3.75;;;1.40;;
67378;SDS011;54262;44.642;-0.974;2023-10-19T08:54:12;2.17;;;1.60;;
67378;SDS011;54262;44.642;-0.974;2023-10-19T08:56:39;2.25;;;1.30;;
67378;SDS011;54262;44.642;-0.974;2023-10-19T08:59:06;3.95;;;1.63;;
67378;SDS011;54262;44.642;-0.974;2023-10-19T09:01:40;3.55;;;1.65;;
67378;SDS011;54262;44.642;-0.974;2023-10-19T09:04:09;4.70;;;1.15;;
67378;SDS011;54262;44.642;-0.974;2023-10-19T09:06:43;5.78;;;1.75;;
67378;SDS011;54262;44.642;-0.974;2023-10-19T09:09:11;3.65;;;1.70;;
67378;SDS011;54262;44.642;-0.974;2023-10-19T09:11:47;4.97;;;1.58;;
67378;SDS011;54262;44.642;-0.974;2023-10-19T09:14:15;4.95;;;1.27;;
67378;SDS011;54262;44.642;-0.974;2023-10-19T09:16:55;4.03;;;1.52;;
67378;SDS011;54262;44.642;-0.974;2023-10-19T09:19:35;5.78;;;1.50;;
67378;SDS011;54262;44.642;-0.974;2023-10-19T09:22:12;2.78;;;1.73;;
67378;SDS011;54262;44.642;-0.974;2023-10-19T09:24:50;11.80;;;1.40;;
67378;SDS011;54262;44.642;-0.974;2023-10-19T09:27:18;8.57;;;1.83;;
67378;SDS011;54262;44.642;-0.974;2023-10-19T09:29:45;8.32;;;1.70;;
67378;SDS011;54262;44.642;-0.974;2023-10-19T09:32:12;2.47;;;1.40;;
67378;SDS011;54262;44.642;-0.974;2023-10-19T09:34:42;4.88;;;1.20;;
67378;SDS011;54262;44.642;-0.974;2023-10-19T09:37:10;8.18;;;2.75;;
67378;SDS011;54262;44.642;-0.974;2023-10-19T09:39:36;10.77;;;4.57;;
67378;SDS011;54262;44.642;-0.974;2023-10-19T09:42:06;11.15;;;4.05;;
67378;SDS011;54262;44.642;-0.974;2023-10-19T09:45:18;13.55;;;4.97;;
67378;SDS011;54262;44.642;-0.974;2023-10-19T09:47:34;8.43;;;4.45;;
67378;SDS011;54262;44.642;-0.974;2023-10-19T09:50:04;10.63;;;4.55;;
67378;SDS011;54262;44.642;-0.974;2023-10-19T09:52:32;19.52;;;5.20;;
67378;SDS011;54262;44.642;-0.974;2023-10-19T09:55:08;7.30;;;4.85;;
67378;SDS011;54262;44.642;-0.974;2023-10-19T09:58:06;11.40;;;5.30;;
67378;SDS011;54262;44.642;-0.974;2023-10-19T10:00:46;13.60;;;5.45;;
67378;SDS011;54262;44.642;-0.974;2023-10-19T10:06:16;12.55;;;5.15;;
67378;SDS011;54262;44.642;-0.974;2023-10-19T10:08:51;6.88;;;4.22;;
67378;SDS011;54262;44.642;-0.974;2023-10-19T10:11:24;14.27;;;4.10;;
67378;SDS011;54262;44.642;-0.974;2023-10-19T10:13:53;10.38;;;4.15;;
67378;SDS011;54262;44.642;-0.974;2023-10-19T10:16:26;11.43;;;3.58;;
67378;SDS011;54262;44.642;-0.974;2023-10-19T10:18:54;4.28;;;2.88;;
67378;SDS011;54262;44.642;-0.974;2023-10-19T10:21:24;11.38;;;3.63;;
67378;SDS011;54262;44.642;-0.974;2023-10-19T10:23:52;5.57;;;3.13;;
67378;SDS011;54262;44.642;-0.974;2023-10-19T10:26:23;4.97;;;3.15;;
67378;SDS011;54262;44.642;-0.974;2023-10-19T10:34:10;7.68;;;2.75;;
67378;SDS011;54262;44.642;-0.974;2023-10-19T10:39:27;5.22;;;2.15;;
67378;SDS011;54262;44.642;-0.974;2023-10-19T10:41:58;5.35;;;2.35;;
67378;SDS011;54262;44.642;-0.974;2023-10-19T10:44:58;3.88;;;2.10;;
67378;SDS011;54262;44.642;-0.974;2023-10-19T10:47:21;2.90;;;2.28;;
67378;SDS011;54262;44.642;-0.974;2023-10-19T10:52:31;1.88;;;1.50;;
67378;SDS011;54262;44.642;-0.974;2023-10-19T10:55:02;7.63;;;1.90;;
67378;SDS011;54262;44.642;-0.974;2023-10-19T10:57:40;3.50;;;1.67;;
67378;SDS011;54262;44.642;-0.974;2023-10-19T11:00:09;4.53;;;1.67;;
67378;SDS011;54262;44.642;-0.974;2023-10-19T11:02:40;2.38;;;1.38;;
67378;SDS011;54262;44.642;-0.974;2023-10-19T11:05:11;3.33;;;1.40;;
67378;SDS011;54262;44.642;-0.974;2023-10-19T11:07:46;6.22;;;1.63;;
67378;SDS011;54262;44.642;-0.974;2023-10-19T11:10:28;1.25;;;1.15;;
67378;SDS011;54262;44.642;-0.974;2023-10-19T11:13:16;2.63;;;0.95;;
67378;SDS011;54262;44.642;-0.974;2023-10-19T11:15:48;2.83;;;1.08;;
67378;SDS011;54262;44.642;-0.974;2023-10-19T11:18:35;1.50;;;1.23;;
67378;SDS011;54262;44.642;-0.974;2023-10-19T11:21:01;2.42;;;1.30;;
67378;SDS011;54262;44.642;-0.974;2023-10-19T11:23:45;2.38;;;1.23;;
67378;SDS011;54262;44.642;-0.974;2023-10-19T11:26:21;1.75;;;1.15;;
67378;SDS011;54262;44.642;-0.974;2023-10-19T11:28:56;2.40;;;1.60;;
67378;SDS011;54262;44.642;-0.974;2023-10-19T11:31:23;3.65;;;2.50;;
67378;SDS011;54262;44.642;-0.974;2023-10-19T11:33:52;4.72;;;2.40;;
67378;SDS011;54262;44.642;-0.974;2023-10-19T11:36:22;8.55;;;3.30;;
67378;SDS011;54262;44.642;-0.974;2023-10-19T11:38:51;5.95;;;3.10;;
67378;SDS011;54262;44.642;-0.974;2023-10-19T11:41:17;6.03;;;4.45;;
67378;SDS011;54262;44.642;-0.974;2023-10-19T11:43:45;6.20;;;3.70;;
67378;SDS011;54262;44.642;-0.974;2023-10-19T11:46:12;5.78;;;4.53;;
67378;SDS011;54262;44.642;-0.974;2023-10-19T11:48:39;6.60;;;3.80;;
67378;SDS011;54262;44.642;-0.974;2023-10-19T11:51:13;8.68;;;3.92;;
67378;SDS011;54262;44.642;-0.974;2023-10-19T11:53:40;6.22;;;4.80;;
67378;SDS011;54262;44.642;-0.974;2023-10-19T11:56:08;8.93;;;5.07;;
67378;SDS011;54262;44.642;-0.974;2023-10-19T11:58:35;21.75;;;6.22;;
67378;SDS011;54262;44.642;-0.974;2023-10-19T12:01:02;25.65;;;6.40;;
67378;SDS011;54262;44.642;-0.974;2023-10-19T12:03:32;16.30;;;6.28;;
67378;SDS011;54262;44.642;-0.974;2023-10-19T12:06:02;16.33;;;5.90;;
67378;SDS011;54262;44.642;-0.974;2023-10-19T12:08:35;9.73;;;4.75;;
67378;SDS011;54262;44.642;-0.974;2023-10-19T12:11:02;20.00;;;4.05;;
67378;SDS011;54262;44.642;-0.974;2023-10-19T12:13:29;8.30;;;3.83;;
67378;SDS011;54262;44.642;-0.974;2023-10-19T12:15:56;8.25;;;4.22;;
67378;SDS011;54262;44.642;-0.974;2023-10-19T12:18:23;7.07;;;3.72;;
67378;SDS011;54262;44.642;-0.974;2023-10-19T12:20:51;6.90;;;3.15;;
67378;SDS011;54262;44.642;-0.974;2023-10-19T12:23:21;5.05;;;3.22;;
67378;SDS011;54262;44.642;-0.974;2023-10-19T12:25:48;5.35;;;3.03;;
67378;SDS011;54262;44.642;-0.974;2023-10-19T12:28:14;11.77;;;3.85;;
67378;SDS011;54262;44.642;-0.974;2023-10-19T12:30:42;5.88;;;3.20;;
67378;SDS011;54262;44.642;-0.974;2023-10-19T12:33:08;9.25;;;3.75;;
67378;SDS011;54262;44.642;-0.974;2023-10-19T12:35:37;8.90;;;3.08;;
67378;SDS011;54262;44.642;-0.974;2023-10-19T12:38:10;4.47;;;2.92;;
67378;SDS011;54262;44.642;-0.974;2023-10-19T12:40:48;7.28;;;3.25;;
67378;SDS011;54262;44.642;-0.974;2023-10-19T12:43:16;6.07;;;3.67;;
67378;SDS011;54262;44.642;-0.974;2023-10-19T12:45:47;4.80;;;3.28;;
67378;SDS011;54262;44.642;-0.974;2023-10-19T12:48:15;7.15;;;2.95;;
67378;SDS011;54262;44.642;-0.974;2023-10-19T12:50:42;8.23;;;3.28;;
67378;SDS011;54262;44.642;-0.974;2023-10-19T12:53:08;10.25;;;2.80;;
67378;SDS011;54262;44.642;-0.974;2023-10-19T12:55:34;9.93;;;2.80;;
67378;SDS011;54262;44.642;-0.974;2023-10-19T12:58:02;5.55;;;3.13;;
67378;SDS011;54262;44.642;-0.974;2023-10-19T13:00:36;10.50;;;4.30;;
67378;SDS011;54262;44.642;-0.974;2023-10-19T13:03:06;13.90;;;3.70;;
67378;SDS011;54262;44.642;-0.974;2023-10-19T13:05:33;4.53;;;3.15;;
67378;SDS011;54262;44.642;-0.974;2023-10-19T13:08:05;8.55;;;3.10;;
67378;SDS011;54262;44.642;-0.974;2023-10-19T13:10:44;4.00;;;2.67;;
67378;SDS011;54262;44.642;-0.974;2023-10-19T13:13:15;2.80;;;2.40;;
67378;SDS011;54262;44.642;-0.974;2023-10-19T13:15:42;4.60;;;2.53;;
67378;SDS011;54262;44.642;-0.974;2023-10-19T13:18:09;9.00;;;3.22;;
67378;SDS011;54262;44.642;-0.974;2023-10-19T13:20:37;10.52;;;2.60;;
67378;SDS011;54262;44.642;-0.974;2023-10-19T13:23:04;10.23;;;2.55;;
67378;SDS011;54262;44.642;-0.974;2023-10-19T13:25:51;12.57;;;2.58;;
67378;SDS011;54262;44.642;-0.974;2023-10-19T13:28:26;7.63;;;2.10;;
67378;SDS011;54262;44.642;-0.974;2023-10-19T13:30:55;3.75;;;1.70;;
67378;SDS011;54262;44.642;-0.974;2023-10-19T13:33:20;2.97;;;1.75;;
67378;SDS011;54262;44.642;-0.974;2023-10-19T13:35:47;11.80;;;2.25;;
67378;SDS011;54262;44.642;-0.974;2023-10-19T13:38:13;7.40;;;1.48;;
67378;SDS011;54262;44.642;-0.974;2023-10-19T13:40:41;6.70;;;1.40;;
67378;SDS011;54262;44.642;-0.974;2023-10-19T13:43:09;15.82;;;1.35;;
67378;SDS011;54262;44.642;-0.974;2023-10-19T13:45:39;6.53;;;1.45;;
67378;SDS011;54262;44.642;-0.974;2023-10-19T13:48:05;6.85;;;1.30;;
67378;SDS011;54262;44.642;-0.974;2023-10-19T13:50:34;1.50;;;0.90;;
67378;SDS011;54262;44.642;-0.974;2023-10-19T13:53:01;6.80;;;1.35;;
67378;SDS011;54262;44.642;-0.974;2023-10-19T13:55:30;1.85;;;0.73;;
67378;SDS011;54262;44.642;-0.974;2023-10-19T13:57:56;2.00;;;0.70;;
67378;SDS011;54262;44.642;-0.974;2023-10-19T14:00:22;0.75;;;0.50;;
67378;SDS011;54262;44.642;-0.974;2023-10-19T14:02:50;2.08;;;0.50;;
67378;SDS011;54262;44.642;-0.974;2023-10-19T14:05:17;3.38;;;0.68;;
67378;SDS011;54262;44.642;-0.974;2023-10-19T14:07:44;1.52;;;0.40;;
67378;SDS011;54262;44.642;-0.974;2023-10-19T14:10:11;1.67;;;0.40;;
67378;SDS011;54262;44.642;-0.974;2023-10-19T14:12:38;3.30;;;0.50;;
67378;SDS011;54262;44.642;-0.974;2023-10-19T14:15:12;1.13;;;0.50;;
67378;SDS011;54262;44.642;-0.974;2023-10-19T14:17:48;1.17;;;0.43;;
67378;SDS011;54262;44.642;-0.974;2023-10-19T14:20:15;1.27;;;0.30;;
67378;SDS011;54262;44.642;-0.974;2023-10-19T14:22:42;1.73;;;0.38;;
67378;SDS011;54262;44.642;-0.974;2023-10-19T14:25:13;0.88;;;0.30;;
67378;SDS011;54262;44.642;-0.974;2023-10-19T14:27:40;0.70;;;0.57;;
67378;SDS011;54262;44.642;-0.974;2023-10-19T14:32:43;15.48;;;0.50;;
67378;SDS011;54262;44.642;-0.974;2023-10-19T14:35:15;1.13;;;0.93;;
67378;SDS011;54262;44.642;-0.974;2023-10-19T14:37:42;1.40;;;0.50;;
67378;SDS011;54262;44.642;-0.974;2023-10-19T14:40:10;4.50;;;0.63;;
67378;SDS011;54262;44.642;-0.974;2023-10-19T14:42:41;4.50;;;0.70;;
67378;SDS011;54262;44.642;-0.974;2023-10-19T14:45:13;18.38;;;1.08;;
67378;SDS011;54262;44.642;-0.974;2023-10-19T14:47:41;3.42;;;1.10;;
67378;SDS011;54262;44.642;-0.974;2023-10-19T14:50:14;6.32;;;1.23;;
67378;SDS011;54262;44.642;-0.974;2023-10-19T14:52:41;6.97;;;1.42;;
67378;SDS011;54262;44.642;-0.974;2023-10-19T14:55:07;6.57;;;1.35;;
67378;SDS011;54262;44.642;-0.974;2023-10-19T14:57:34;3.05;;;1.38;;
67378;SDS011;54262;44.642;-0.974;2023-10-19T15:00:05;8.30;;;4.30;;
67378;SDS011;54262;44.642;-0.974;2023-10-19T15:02:55;2.58;;;1.75;;
67378;SDS011;54262;44.642;-0.974;2023-10-19T15:05:25;4.15;;;1.40;;
67378;SDS011;54262;44.642;-0.974;2023-10-19T15:07:52;11.88;;;2.58;;
67378;SDS011;54262;44.642;-0.974;2023-10-19T15:10:19;8.55;;;2.63;;
67378;SDS011;54262;44.642;-0.974;2023-10-19T15:12:48;3.70;;;2.80;;